ALK89L VCBI-VGHS
Flight info
| Callsign | ALK89L |
|---|---|
| Flight time | 2h 54m |
| Altitude | 37000 |
| Route | ATETA2D ATETA DCT SAGOR/N0436F390 DCT SUGAN Q10 PONOG DCT BEMAK A462 AKEVO |
| Aircraft | A20N/M-SDE2E3FGHIRWXY/LB1 |
Departure
| Time | 2026-04-27 01:39 |
|---|---|
| Airport | Bandaranaike International Colombo Airport (VCBI) |
Arrival
| Time | 2026-04-27 04:34 |
|---|---|
| Airport | Hazrat Shahjalal International Airport (VGHS) |
| Time | Latitude | Longitude | Altitude | Speed | Heading |
|---|---|---|---|---|---|
| 2026-04-27 01:11 | 7.17615 | 79.88567 | 30 ft | 0 kts | 217° |
| 2026-04-27 01:26 | 7.17622 | 79.88573 | 16 ft | 3 kts | 217° |
| 2026-04-27 01:26 | 7.17637 | 79.88585 | 9 ft | 3 kts | 217° |
| 2026-04-27 01:27 | 7.17652 | 79.88596 | 30 ft | 3 kts | 217° |
| 2026-04-27 01:27 | 7.17667 | 79.88607 | 30 ft | 3 kts | 217° |
| 2026-04-27 01:27 | 7.17682 | 79.88619 | 30 ft | 3 kts | 217° |
| 2026-04-27 01:27 | 7.17694 | 79.88632 | 30 ft | 3 kts | 251° |
| 2026-04-27 01:28 | 7.17695 | 79.88651 | 30 ft | 3 kts | 291° |
| 2026-04-27 01:28 | 7.17693 | 79.88656 | 30 ft | 0 kts | 303° |
| 2026-04-27 01:32 | 7.17699 | 79.88647 | 30 ft | 4 kts | 304° |
| 2026-04-27 01:32 | 7.17727 | 79.88610 | 30 ft | 8 kts | 306° |
| 2026-04-27 01:32 | 7.17762 | 79.88562 | 30 ft | 8 kts | 306° |
| 2026-04-27 01:33 | 7.17796 | 79.88515 | 30 ft | 8 kts | 308° |
| 2026-04-27 01:33 | 7.17820 | 79.88485 | 30 ft | 8 kts | 309° |
| 2026-04-27 01:33 | 7.17851 | 79.88439 | 30 ft | 8 kts | 291° |
| 2026-04-27 01:33 | 7.17828 | 79.88382 | 30 ft | 11 kts | 221° |
| 2026-04-27 01:34 | 7.17758 | 79.88329 | 31 ft | 14 kts | 217° |
| 2026-04-27 01:34 | 7.17672 | 79.88262 | 31 ft | 17 kts | 217° |
| 2026-04-27 01:34 | 7.17572 | 79.88186 | 31 ft | 19 kts | 217° |
| 2026-04-27 01:34 | 7.17466 | 79.88105 | 30 ft | 19 kts | 217° |
| 2026-04-27 01:35 | 7.17358 | 79.88023 | 30 ft | 19 kts | 217° |
| 2026-04-27 01:35 | 7.17249 | 79.87940 | 30 ft | 20 kts | 218° |
| 2026-04-27 01:35 | 7.17139 | 79.87856 | 30 ft | 20 kts | 217° |
| 2026-04-27 01:35 | 7.17030 | 79.87772 | 30 ft | 20 kts | 217° |
| 2026-04-27 01:36 | 7.16921 | 79.87689 | 30 ft | 20 kts | 216° |
| 2026-04-27 01:36 | 7.16840 | 79.87610 | 31 ft | 14 kts | 259° |
| 2026-04-27 01:36 | 7.16847 | 79.87579 | 31 ft | 0 kts | 298° |
| 2026-04-27 01:38 | 7.16877 | 79.87532 | 31 ft | 16 kts | 308° |
| 2026-04-27 01:38 | 7.16982 | 79.87514 | 32 ft | 29 kts | 28° |
| 2026-04-27 01:38 | 7.17326 | 79.87773 | 31 ft | 94 kts | 37° |
| 2026-04-27 01:38 | 7.18006 | 79.88292 | 32 ft | 150 kts | 37° |
| 2026-04-27 01:39 | 7.18884 | 79.88954 | 405 ft | 158 kts | 37° |
| 2026-04-27 01:39 | 7.19788 | 79.89601 | 912 ft | 161 kts | 26° |
| 2026-04-27 01:39 | 7.20851 | 79.89859 | 1422 ft | 160 kts | 346° |
| 2026-04-27 01:39 | 7.21932 | 79.89403 | 1746 ft | 185 kts | 333° |
| 2026-04-27 01:40 | 7.23269 | 79.88904 | 1996 ft | 224 kts | 346° |
| 2026-04-27 01:40 | 7.24923 | 79.88667 | 2338 ft | 254 kts | 355° |
| 2026-04-27 01:40 | 7.26755 | 79.88602 | 2859 ft | 270 kts | 359° |
| 2026-04-27 01:40 | 7.28634 | 79.88604 | 3699 ft | 271 kts | 359° |
| 2026-04-27 01:41 | 7.30522 | 79.88598 | 4572 ft | 272 kts | 360° |
| 2026-04-27 01:41 | 7.32416 | 79.88592 | 5399 ft | 273 kts | 0° |
| 2026-04-27 01:41 | 7.34323 | 79.88597 | 6198 ft | 275 kts | 1° |
| 2026-04-27 01:41 | 7.36246 | 79.88608 | 6942 ft | 278 kts | 1° |
| 2026-04-27 01:42 | 7.38196 | 79.88624 | 7659 ft | 282 kts | 1° |
| 2026-04-27 01:42 | 7.40169 | 79.88630 | 8399 ft | 286 kts | 1° |
| 2026-04-27 01:42 | 7.42167 | 79.88632 | 9158 ft | 289 kts | 1° |
| 2026-04-27 01:42 | 7.44191 | 79.88635 | 9889 ft | 293 kts | 1° |
| 2026-04-27 01:43 | 7.46258 | 79.88638 | 10387 ft | 305 kts | 2° |
| 2026-04-27 01:43 | 7.48443 | 79.88642 | 10682 ft | 323 kts | 1° |
| 2026-04-27 01:43 | 7.50732 | 79.88646 | 11120 ft | 333 kts | 1° |
| 2026-04-27 01:43 | 7.53039 | 79.88648 | 11692 ft | 339 kts | 2° |
| 2026-04-27 01:44 | 7.55408 | 79.88650 | 12306 ft | 342 kts | 2° |
| 2026-04-27 01:44 | 7.57800 | 79.88653 | 12940 ft | 346 kts | 2° |
| 2026-04-27 01:44 | 7.60219 | 79.88656 | 13582 ft | 349 kts | 2° |
| 2026-04-27 01:44 | 7.62664 | 79.88659 | 14142 ft | 353 kts | 2° |
| 2026-04-27 01:45 | 7.65131 | 79.88663 | 14726 ft | 356 kts | 2° |
| 2026-04-27 01:45 | 7.67623 | 79.88656 | 15308 ft | 360 kts | 360° |
| 2026-04-27 01:45 | 7.70134 | 79.88428 | 15890 ft | 365 kts | 355° |
| 2026-04-27 01:45 | 7.72661 | 79.88077 | 16460 ft | 369 kts | 354° |
| 2026-04-27 01:46 | 7.75211 | 79.87701 | 17028 ft | 372 kts | 353° |
| 2026-04-27 01:46 | 7.77785 | 79.87321 | 17574 ft | 376 kts | 354° |
| 2026-04-27 01:46 | 7.80382 | 79.86941 | 18102 ft | 379 kts | 354° |
| 2026-04-27 01:46 | 7.83004 | 79.86559 | 18543 ft | 382 kts | 354° |
| 2026-04-27 01:47 | 7.85640 | 79.86177 | 18991 ft | 384 kts | 353° |
| 2026-04-27 01:47 | 7.88298 | 79.85792 | 19443 ft | 386 kts | 353° |
| 2026-04-27 01:47 | 7.90963 | 79.85406 | 19890 ft | 389 kts | 353° |
| 2026-04-27 01:47 | 7.93651 | 79.85017 | 20337 ft | 391 kts | 353° |
| 2026-04-27 01:48 | 7.96351 | 79.84627 | 20792 ft | 393 kts | 353° |
| 2026-04-27 01:48 | 7.99067 | 79.84234 | 21249 ft | 396 kts | 353° |
| 2026-04-27 01:48 | 8.01801 | 79.83838 | 21712 ft | 398 kts | 353° |
| 2026-04-27 01:48 | 8.04550 | 79.83441 | 22171 ft | 400 kts | 353° |
| 2026-04-27 01:49 | 8.07320 | 79.83040 | 22629 ft | 403 kts | 353° |
| 2026-04-27 01:49 | 8.10103 | 79.82638 | 23091 ft | 406 kts | 353° |
| 2026-04-27 01:49 | 8.12871 | 79.82237 | 23543 ft | 408 kts | 353° |
| 2026-04-27 01:49 | 8.15689 | 79.81830 | 23924 ft | 411 kts | 353° |
| 2026-04-27 01:50 | 8.18527 | 79.81419 | 24293 ft | 414 kts | 353° |
| 2026-04-27 01:50 | 8.21382 | 79.81005 | 24672 ft | 416 kts | 353° |
| 2026-04-27 01:50 | 8.24259 | 79.80589 | 25053 ft | 418 kts | 353° |
| 2026-04-27 01:50 | 8.27186 | 79.80165 | 25437 ft | 421 kts | 353° |
| 2026-04-27 01:51 | 8.30094 | 79.79743 | 25813 ft | 423 kts | 353° |
| 2026-04-27 01:51 | 8.32979 | 79.79326 | 26166 ft | 426 kts | 353° |
| 2026-04-27 01:51 | 8.35920 | 79.78899 | 26512 ft | 428 kts | 353° |
| 2026-04-27 01:51 | 8.38875 | 79.78471 | 26852 ft | 431 kts | 353° |
| 2026-04-27 01:52 | 8.41850 | 79.78040 | 27184 ft | 433 kts | 353° |
| 2026-04-27 01:52 | 8.44843 | 79.77606 | 27513 ft | 436 kts | 353° |
| 2026-04-27 01:52 | 8.47849 | 79.77171 | 27843 ft | 438 kts | 353° |
| 2026-04-27 01:52 | 8.50872 | 79.76733 | 28155 ft | 440 kts | 353° |
| 2026-04-27 01:53 | 8.53912 | 79.76289 | 28472 ft | 442 kts | 353° |
| 2026-04-27 01:53 | 8.56969 | 79.75841 | 28777 ft | 445 kts | 353° |
| 2026-04-27 01:53 | 8.60039 | 79.75390 | 29086 ft | 447 kts | 353° |
| 2026-04-27 01:53 | 8.63123 | 79.74938 | 29384 ft | 449 kts | 353° |
| 2026-04-27 01:54 | 8.66225 | 79.74482 | 29691 ft | 451 kts | 353° |
| 2026-04-27 01:54 | 8.69338 | 79.74026 | 29977 ft | 453 kts | 353° |
| 2026-04-27 01:54 | 8.72469 | 79.73566 | 30218 ft | 456 kts | 353° |
| 2026-04-27 01:54 | 8.75611 | 79.73105 | 30467 ft | 458 kts | 353° |
| 2026-04-27 01:55 | 8.78767 | 79.72642 | 30715 ft | 459 kts | 353° |
| 2026-04-27 01:55 | 8.81939 | 79.72176 | 30946 ft | 461 kts | 353° |
| 2026-04-27 01:55 | 8.85125 | 79.71708 | 31190 ft | 463 kts | 353° |
| 2026-04-27 01:55 | 8.88311 | 79.71240 | 31495 ft | 463 kts | 353° |
| 2026-04-27 01:56 | 8.94669 | 79.70307 | 32156 ft | 461 kts | 352° |
| 2026-04-27 01:56 | 8.97847 | 79.69840 | 32468 ft | 461 kts | 352° |
| 2026-04-27 01:56 | 9.01020 | 79.69374 | 32773 ft | 461 kts | 352° |
| 2026-04-27 01:57 | 9.04190 | 79.68909 | 33083 ft | 461 kts | 352° |
| 2026-04-27 01:57 | 9.07361 | 79.68443 | 33361 ft | 461 kts | 352° |
| 2026-04-27 01:57 | 9.10533 | 79.67977 | 33642 ft | 461 kts | 352° |
| 2026-04-27 01:57 | 9.13705 | 79.67511 | 33919 ft | 461 kts | 352° |
| 2026-04-27 01:58 | 9.16835 | 79.67051 | 34159 ft | 461 kts | 352° |
| 2026-04-27 01:58 | 9.20009 | 79.66584 | 34398 ft | 461 kts | 352° |
| 2026-04-27 01:58 | 9.23180 | 79.66118 | 34633 ft | 461 kts | 352° |
| 2026-04-27 01:58 | 9.26353 | 79.65704 | 34856 ft | 460 kts | 356° |
| 2026-04-27 01:59 | 9.29552 | 79.65688 | 35081 ft | 459 kts | 6° |
| 2026-04-27 01:59 | 9.32692 | 79.66246 | 35281 ft | 458 kts | 17° |
| 2026-04-27 01:59 | 9.35666 | 79.67384 | 35495 ft | 457 kts | 27° |
| 2026-04-27 01:59 | 9.38448 | 79.68928 | 35711 ft | 456 kts | 31° |
| 2026-04-27 02:00 | 9.41161 | 79.70583 | 35913 ft | 456 kts | 33° |
| 2026-04-27 02:00 | 9.43843 | 79.72295 | 36116 ft | 456 kts | 33° |
| 2026-04-27 02:00 | 9.46512 | 79.74027 | 36312 ft | 456 kts | 34° |
| 2026-04-27 02:00 | 9.49183 | 79.75763 | 36501 ft | 456 kts | 34° |
| 2026-04-27 02:01 | 9.51859 | 79.77493 | 36691 ft | 456 kts | 33° |
| 2026-04-27 02:01 | 9.54544 | 79.79216 | 36842 ft | 457 kts | 33° |
| 2026-04-27 02:01 | 9.59927 | 79.82645 | 36860 ft | 456 kts | 33° |
| 2026-04-27 02:02 | 9.65306 | 79.86059 | 36862 ft | 456 kts | 33° |
| 2026-04-27 02:02 | 9.70690 | 79.89477 | 36862 ft | 456 kts | 33° |
| 2026-04-27 02:03 | 9.76070 | 79.92896 | 36865 ft | 457 kts | 33° |
| 2026-04-27 02:03 | 9.81457 | 79.96322 | 36864 ft | 457 kts | 33° |
| 2026-04-27 02:04 | 9.86844 | 79.99749 | 36866 ft | 457 kts | 33° |
| 2026-04-27 02:04 | 9.92235 | 80.03181 | 36864 ft | 458 kts | 33° |
| 2026-04-27 02:05 | 9.97629 | 80.06616 | 36866 ft | 458 kts | 33° |
| 2026-04-27 02:05 | 10.03220 | 80.09725 | 37027 ft | 459 kts | 28° |
| 2026-04-27 02:06 | 10.06079 | 80.11184 | 37218 ft | 460 kts | 27° |
| 2026-04-27 02:06 | 10.08942 | 80.12620 | 37400 ft | 460 kts | 27° |
| 2026-04-27 02:06 | 10.11813 | 80.14050 | 37569 ft | 460 kts | 27° |
| 2026-04-27 02:06 | 10.14687 | 80.15478 | 37732 ft | 460 kts | 27° |
| 2026-04-27 02:07 | 10.17563 | 80.16908 | 37904 ft | 460 kts | 27° |
| 2026-04-27 02:07 | 10.20441 | 80.18341 | 38074 ft | 460 kts | 27° |
| 2026-04-27 02:07 | 10.23316 | 80.19775 | 38229 ft | 461 kts | 27° |
| 2026-04-27 02:07 | 10.26196 | 80.21213 | 38386 ft | 461 kts | 27° |
| 2026-04-27 02:08 | 10.29073 | 80.22652 | 38523 ft | 461 kts | 27° |
| 2026-04-27 02:08 | 10.31950 | 80.24091 | 38650 ft | 461 kts | 27° |
| 2026-04-27 02:08 | 10.34826 | 80.25530 | 38777 ft | 461 kts | 27° |
| 2026-04-27 02:08 | 10.37668 | 80.26952 | 38853 ft | 462 kts | 27° |
| 2026-04-27 02:09 | 10.43415 | 80.29829 | 38862 ft | 459 kts | 27° |
| 2026-04-27 02:09 | 10.49135 | 80.32694 | 38864 ft | 458 kts | 27° |
| 2026-04-27 02:10 | 10.54855 | 80.35559 | 38860 ft | 458 kts | 27° |
| 2026-04-27 02:10 | 10.60575 | 80.38425 | 38870 ft | 458 kts | 26° |
| 2026-04-27 02:11 | 10.66290 | 80.41290 | 38864 ft | 458 kts | 26° |
| 2026-04-27 02:11 | 10.72004 | 80.44156 | 38866 ft | 458 kts | 26° |
| 2026-04-27 02:12 | 10.77721 | 80.47024 | 38867 ft | 458 kts | 26° |
| 2026-04-27 02:12 | 10.83440 | 80.49893 | 38858 ft | 458 kts | 26° |
| 2026-04-27 02:13 | 10.89153 | 80.52762 | 38866 ft | 458 kts | 26° |
| 2026-04-27 02:13 | 10.94867 | 80.55632 | 38865 ft | 458 kts | 26° |
| 2026-04-27 02:14 | 11.00582 | 80.58505 | 38868 ft | 458 kts | 26° |
| 2026-04-27 02:14 | 11.06303 | 80.61384 | 38859 ft | 458 kts | 26° |
| 2026-04-27 02:15 | 11.12021 | 80.64262 | 38866 ft | 459 kts | 26° |
| 2026-04-27 02:15 | 11.17741 | 80.67141 | 38859 ft | 459 kts | 26° |
| 2026-04-27 02:16 | 11.23465 | 80.70022 | 38868 ft | 459 kts | 26° |
| 2026-04-27 02:16 | 11.29190 | 80.72906 | 38860 ft | 459 kts | 26° |
| 2026-04-27 02:17 | 11.34918 | 80.75792 | 38867 ft | 460 kts | 26° |
| 2026-04-27 02:17 | 11.40654 | 80.78684 | 38866 ft | 460 kts | 26° |
| 2026-04-27 02:18 | 11.46389 | 80.81576 | 38872 ft | 460 kts | 26° |
| 2026-04-27 02:18 | 11.52129 | 80.84473 | 38860 ft | 460 kts | 26° |
| 2026-04-27 02:19 | 11.57872 | 80.87372 | 38873 ft | 461 kts | 26° |
| 2026-04-27 02:19 | 11.63582 | 80.90256 | 38871 ft | 461 kts | 26° |
| 2026-04-27 02:20 | 11.69336 | 80.93164 | 38869 ft | 462 kts | 25° |
| 2026-04-27 02:20 | 11.75089 | 80.96072 | 38866 ft | 462 kts | 25° |
| 2026-04-27 02:21 | 11.80852 | 80.98985 | 38866 ft | 462 kts | 25° |
| 2026-04-27 02:21 | 11.86616 | 81.01901 | 38873 ft | 463 kts | 25° |
| 2026-04-27 02:22 | 11.92385 | 81.04823 | 38863 ft | 463 kts | 25° |
| 2026-04-27 02:22 | 11.97183 | 81.07253 | 38872 ft | 463 kts | 25° |
| 2026-04-27 02:23 | 12.02960 | 81.10180 | 38879 ft | 464 kts | 25° |
| 2026-04-27 02:23 | 12.08744 | 81.13111 | 38866 ft | 464 kts | 25° |
| 2026-04-27 02:24 | 12.14529 | 81.16046 | 38870 ft | 464 kts | 24° |
| 2026-04-27 02:24 | 12.20321 | 81.18984 | 38869 ft | 465 kts | 24° |
| 2026-04-27 02:25 | 12.26111 | 81.21924 | 38875 ft | 465 kts | 24° |
| 2026-04-27 02:25 | 12.31908 | 81.24868 | 38865 ft | 465 kts | 24° |
| 2026-04-27 02:26 | 12.37709 | 81.27807 | 38873 ft | 465 kts | 24° |
| 2026-04-27 02:26 | 12.43509 | 81.30749 | 38870 ft | 466 kts | 24° |
| 2026-04-27 02:27 | 12.49312 | 81.33700 | 38866 ft | 466 kts | 24° |
| 2026-04-27 02:27 | 12.55117 | 81.36667 | 38873 ft | 466 kts | 24° |
| 2026-04-27 02:28 | 12.60916 | 81.39630 | 38880 ft | 466 kts | 24° |
| 2026-04-27 02:28 | 12.66720 | 81.42588 | 38876 ft | 466 kts | 24° |
| 2026-04-27 02:29 | 12.72526 | 81.45546 | 38874 ft | 466 kts | 23° |
| 2026-04-27 02:29 | 12.78338 | 81.48510 | 38869 ft | 466 kts | 23° |
| 2026-04-27 02:30 | 12.84149 | 81.51474 | 38872 ft | 466 kts | 23° |
| 2026-04-27 02:30 | 12.89956 | 81.54440 | 38868 ft | 466 kts | 23° |
| 2026-04-27 02:31 | 12.95730 | 81.57389 | 38869 ft | 466 kts | 23° |
| 2026-04-27 02:31 | 13.01528 | 81.60352 | 38870 ft | 466 kts | 23° |
| 2026-04-27 02:32 | 13.07328 | 81.63318 | 38867 ft | 465 kts | 23° |
| 2026-04-27 02:32 | 13.13124 | 81.66283 | 38870 ft | 465 kts | 23° |
| 2026-04-27 02:33 | 13.18912 | 81.69246 | 38870 ft | 465 kts | 23° |
| 2026-04-27 02:33 | 13.24700 | 81.72212 | 38870 ft | 465 kts | 23° |
| 2026-04-27 02:34 | 13.30486 | 81.75176 | 38870 ft | 465 kts | 23° |
| 2026-04-27 02:34 | 13.36268 | 81.78140 | 38872 ft | 465 kts | 23° |
| 2026-04-27 02:35 | 13.42054 | 81.81107 | 38869 ft | 465 kts | 23° |
| 2026-04-27 02:35 | 13.47840 | 81.84078 | 38873 ft | 465 kts | 23° |
| 2026-04-27 02:36 | 13.53621 | 81.87047 | 38870 ft | 465 kts | 23° |
| 2026-04-27 02:36 | 13.59406 | 81.90020 | 38869 ft | 465 kts | 23° |
| 2026-04-27 02:37 | 13.65189 | 81.92992 | 38869 ft | 465 kts | 23° |
| 2026-04-27 02:37 | 13.70972 | 81.95967 | 38867 ft | 465 kts | 23° |
| 2026-04-27 02:38 | 13.76758 | 81.98945 | 38870 ft | 465 kts | 23° |
| 2026-04-27 02:38 | 13.82543 | 82.01923 | 38867 ft | 465 kts | 23° |
| 2026-04-27 02:39 | 13.88332 | 82.04904 | 38867 ft | 465 kts | 23° |
| 2026-04-27 02:39 | 13.94086 | 82.07862 | 38867 ft | 465 kts | 23° |
| 2026-04-27 02:40 | 13.99883 | 82.10846 | 38866 ft | 466 kts | 23° |
| 2026-04-27 02:40 | 14.05676 | 82.13834 | 38866 ft | 466 kts | 23° |
| 2026-04-27 02:41 | 14.11472 | 82.16826 | 38865 ft | 466 kts | 23° |
| 2026-04-27 02:41 | 14.17272 | 82.19824 | 38865 ft | 466 kts | 23° |
| 2026-04-27 02:42 | 14.23072 | 82.22822 | 38864 ft | 467 kts | 23° |
| 2026-04-27 02:42 | 14.28873 | 82.25826 | 38864 ft | 467 kts | 23° |
| 2026-04-27 02:43 | 14.34678 | 82.28836 | 38866 ft | 467 kts | 23° |
| 2026-04-27 02:43 | 14.40488 | 82.31850 | 38865 ft | 467 kts | 23° |
| 2026-04-27 02:44 | 14.46300 | 82.34864 | 38866 ft | 468 kts | 23° |
| 2026-04-27 02:44 | 14.52116 | 82.37879 | 38862 ft | 468 kts | 23° |
| 2026-04-27 02:45 | 14.57935 | 82.40898 | 38864 ft | 468 kts | 23° |
| 2026-04-27 02:45 | 14.63761 | 82.43922 | 38863 ft | 469 kts | 23° |
| 2026-04-27 02:46 | 14.69589 | 82.46950 | 38863 ft | 469 kts | 23° |
| 2026-04-27 02:46 | 14.75396 | 82.49968 | 38863 ft | 469 kts | 23° |
| 2026-04-27 02:47 | 14.81231 | 82.53002 | 38857 ft | 470 kts | 23° |
| 2026-04-27 02:47 | 14.87076 | 82.56043 | 38862 ft | 470 kts | 23° |
| 2026-04-27 02:48 | 14.92919 | 82.59084 | 38863 ft | 470 kts | 23° |
| 2026-04-27 02:48 | 14.98757 | 82.62126 | 38859 ft | 470 kts | 22° |
| 2026-04-27 02:49 | 15.04598 | 82.65172 | 38858 ft | 470 kts | 23° |
| 2026-04-27 02:49 | 15.10440 | 82.68220 | 38860 ft | 470 kts | 22° |
| 2026-04-27 02:50 | 15.16284 | 82.71271 | 38859 ft | 470 kts | 22° |
| 2026-04-27 02:50 | 15.22128 | 82.74324 | 38859 ft | 470 kts | 22° |
| 2026-04-27 02:51 | 15.27970 | 82.77377 | 38859 ft | 470 kts | 22° |
| 2026-04-27 02:51 | 15.33811 | 82.80432 | 38858 ft | 470 kts | 22° |
| 2026-04-27 02:52 | 15.39648 | 82.83498 | 38856 ft | 471 kts | 25° |
| 2026-04-27 02:52 | 15.45056 | 82.87399 | 38857 ft | 475 kts | 34° |
| 2026-04-27 02:53 | 15.50229 | 82.91684 | 38856 ft | 476 kts | 36° |
| 2026-04-27 02:53 | 15.55353 | 82.96047 | 38853 ft | 476 kts | 36° |
| 2026-04-27 02:54 | 15.60473 | 83.00405 | 38854 ft | 476 kts | 36° |
| 2026-04-27 02:54 | 15.65609 | 83.04758 | 38854 ft | 477 kts | 36° |
| 2026-04-27 02:55 | 15.70746 | 83.09105 | 38854 ft | 477 kts | 36° |
| 2026-04-27 02:55 | 15.75884 | 83.13454 | 38852 ft | 477 kts | 35° |
| 2026-04-27 02:56 | 15.81025 | 83.17809 | 38855 ft | 477 kts | 35° |
| 2026-04-27 02:56 | 15.86167 | 83.22169 | 38853 ft | 477 kts | 35° |
| 2026-04-27 02:57 | 15.91313 | 83.26534 | 38856 ft | 478 kts | 35° |
| 2026-04-27 02:57 | 15.96460 | 83.30904 | 38856 ft | 478 kts | 35° |
| 2026-04-27 02:58 | 16.01606 | 83.35276 | 38854 ft | 478 kts | 35° |
| 2026-04-27 02:58 | 16.06753 | 83.39652 | 38854 ft | 478 kts | 35° |
| 2026-04-27 02:59 | 16.11900 | 83.44031 | 38855 ft | 478 kts | 35° |
| 2026-04-27 02:59 | 16.17045 | 83.48411 | 38855 ft | 478 kts | 34° |
| 2026-04-27 03:00 | 16.22188 | 83.52793 | 38853 ft | 477 kts | 34° |
| 2026-04-27 03:00 | 16.27288 | 83.57142 | 38853 ft | 477 kts | 34° |
| 2026-04-27 03:01 | 16.32426 | 83.61526 | 38853 ft | 477 kts | 34° |
| 2026-04-27 03:01 | 16.37560 | 83.65909 | 38854 ft | 477 kts | 34° |
| 2026-04-27 03:02 | 16.42698 | 83.70298 | 38858 ft | 478 kts | 34° |
| 2026-04-27 03:02 | 16.47834 | 83.74689 | 38853 ft | 477 kts | 34° |
| 2026-04-27 03:03 | 16.55537 | 83.81281 | 38860 ft | 478 kts | 34° |
| 2026-04-27 03:04 | 16.60673 | 83.85679 | 38857 ft | 478 kts | 34° |
| 2026-04-27 03:04 | 16.65809 | 83.90081 | 38857 ft | 478 kts | 34° |
| 2026-04-27 03:05 | 16.70946 | 83.94487 | 38855 ft | 478 kts | 34° |
| 2026-04-27 03:05 | 16.76079 | 83.98893 | 38857 ft | 478 kts | 34° |
| 2026-04-27 03:06 | 16.81213 | 84.03304 | 38859 ft | 478 kts | 34° |
| 2026-04-27 03:06 | 16.86353 | 84.07713 | 38857 ft | 478 kts | 34° |
| 2026-04-27 03:07 | 16.91509 | 84.12104 | 38852 ft | 478 kts | 33° |
| 2026-04-27 03:07 | 16.96662 | 84.16487 | 38856 ft | 478 kts | 33° |
| 2026-04-27 03:08 | 17.01810 | 84.20871 | 38855 ft | 477 kts | 33° |
| 2026-04-27 03:08 | 17.06091 | 84.24521 | 38855 ft | 477 kts | 33° |
| 2026-04-27 03:09 | 17.12067 | 84.29622 | 38852 ft | 477 kts | 33° |
| 2026-04-27 03:09 | 17.17205 | 84.34011 | 38850 ft | 477 kts | 33° |
| 2026-04-27 03:10 | 17.21508 | 84.37690 | 38851 ft | 477 kts | 33° |
| 2026-04-27 03:10 | 17.26648 | 84.42087 | 38853 ft | 477 kts | 33° |
| 2026-04-27 03:11 | 17.31780 | 84.46481 | 38850 ft | 477 kts | 33° |
| 2026-04-27 03:11 | 17.36914 | 84.50875 | 38851 ft | 477 kts | 33° |
| 2026-04-27 03:12 | 17.42052 | 84.55256 | 38849 ft | 476 kts | 33° |
| 2026-04-27 03:12 | 17.47191 | 84.59632 | 38848 ft | 476 kts | 33° |
| 2026-04-27 03:13 | 17.52326 | 84.64011 | 38847 ft | 476 kts | 33° |
| 2026-04-27 03:13 | 17.57460 | 84.68394 | 38845 ft | 476 kts | 33° |
| 2026-04-27 03:14 | 17.62591 | 84.72778 | 38846 ft | 476 kts | 33° |
| 2026-04-27 03:14 | 17.67720 | 84.77165 | 38845 ft | 476 kts | 33° |
| 2026-04-27 03:15 | 17.72803 | 84.81529 | 38845 ft | 475 kts | 33° |
| 2026-04-27 03:15 | 17.77917 | 84.85928 | 38842 ft | 475 kts | 33° |
| 2026-04-27 03:16 | 17.83029 | 84.90328 | 38842 ft | 475 kts | 33° |
| 2026-04-27 03:16 | 17.88140 | 84.94730 | 38842 ft | 475 kts | 33° |
| 2026-04-27 03:17 | 17.93246 | 84.99130 | 38841 ft | 475 kts | 33° |
| 2026-04-27 03:17 | 17.98355 | 85.03536 | 38839 ft | 475 kts | 33° |
| 2026-04-27 03:18 | 18.03459 | 85.07942 | 38834 ft | 475 kts | 33° |
| 2026-04-27 03:18 | 18.08566 | 85.12353 | 38834 ft | 475 kts | 33° |
| 2026-04-27 03:19 | 18.13665 | 85.16761 | 38834 ft | 475 kts | 33° |
| 2026-04-27 03:19 | 18.18769 | 85.21177 | 38838 ft | 475 kts | 33° |
| 2026-04-27 03:20 | 18.23870 | 85.25593 | 38834 ft | 475 kts | 33° |
| 2026-04-27 03:20 | 18.28976 | 85.30017 | 38831 ft | 475 kts | 33° |
| 2026-04-27 03:21 | 18.34077 | 85.34441 | 38830 ft | 475 kts | 33° |
| 2026-04-27 03:21 | 18.39182 | 85.38872 | 38826 ft | 476 kts | 33° |
| 2026-04-27 03:22 | 18.44286 | 85.43305 | 38827 ft | 476 kts | 33° |
| 2026-04-27 03:22 | 18.49391 | 85.47742 | 38827 ft | 476 kts | 32° |
| 2026-04-27 03:23 | 18.54493 | 85.52181 | 38827 ft | 475 kts | 32° |
| 2026-04-27 03:23 | 18.59592 | 85.56620 | 38826 ft | 475 kts | 32° |
| 2026-04-27 03:24 | 18.64689 | 85.61062 | 38821 ft | 475 kts | 32° |
| 2026-04-27 03:24 | 18.69785 | 85.65506 | 38822 ft | 475 kts | 32° |
| 2026-04-27 03:25 | 18.74883 | 85.69955 | 38823 ft | 475 kts | 32° |
| 2026-04-27 03:25 | 18.79978 | 85.74404 | 38821 ft | 475 kts | 32° |
| 2026-04-27 03:26 | 18.85069 | 85.78855 | 38818 ft | 475 kts | 32° |
| 2026-04-27 03:26 | 18.90124 | 85.83278 | 38815 ft | 475 kts | 32° |
| 2026-04-27 03:27 | 18.95219 | 85.87718 | 38814 ft | 474 kts | 32° |
| 2026-04-27 03:27 | 19.00328 | 85.92124 | 38816 ft | 474 kts | 32° |
| 2026-04-27 03:28 | 19.05436 | 85.96524 | 38808 ft | 474 kts | 32° |
| 2026-04-27 03:28 | 19.10536 | 86.00926 | 38810 ft | 473 kts | 32° |
| 2026-04-27 03:29 | 19.15631 | 86.05330 | 38806 ft | 473 kts | 32° |
| 2026-04-27 03:29 | 19.20719 | 86.09733 | 38807 ft | 472 kts | 32° |
| 2026-04-27 03:30 | 19.25807 | 86.14140 | 38801 ft | 472 kts | 32° |
| 2026-04-27 03:30 | 19.30890 | 86.18545 | 38799 ft | 472 kts | 32° |
| 2026-04-27 03:31 | 19.35972 | 86.22954 | 38800 ft | 472 kts | 32° |
| 2026-04-27 03:31 | 19.41047 | 86.27360 | 38798 ft | 472 kts | 32° |
| 2026-04-27 03:32 | 19.46124 | 86.31772 | 38795 ft | 472 kts | 32° |
| 2026-04-27 03:32 | 19.51198 | 86.36184 | 38798 ft | 472 kts | 32° |
| 2026-04-27 03:33 | 19.56265 | 86.40595 | 38795 ft | 471 kts | 32° |
| 2026-04-27 03:33 | 19.61328 | 86.45006 | 38796 ft | 471 kts | 32° |
| 2026-04-27 03:34 | 19.66393 | 86.49412 | 38796 ft | 471 kts | 32° |
| 2026-04-27 03:34 | 19.71456 | 86.53810 | 38793 ft | 471 kts | 32° |
| 2026-04-27 03:35 | 19.76520 | 86.58212 | 38796 ft | 470 kts | 32° |
| 2026-04-27 03:35 | 19.81579 | 86.62616 | 38793 ft | 470 kts | 32° |
| 2026-04-27 03:36 | 19.86639 | 86.67023 | 38792 ft | 470 kts | 32° |
| 2026-04-27 03:36 | 19.91693 | 86.71427 | 38794 ft | 470 kts | 32° |
| 2026-04-27 03:37 | 19.96748 | 86.75836 | 38797 ft | 470 kts | 32° |
| 2026-04-27 03:37 | 20.01799 | 86.80244 | 38798 ft | 470 kts | 32° |
| 2026-04-27 03:38 | 20.06850 | 86.84656 | 38800 ft | 470 kts | 32° |
| 2026-04-27 03:38 | 20.11900 | 86.89070 | 38798 ft | 470 kts | 32° |
| 2026-04-27 03:39 | 20.16912 | 86.93457 | 38795 ft | 470 kts | 32° |
| 2026-04-27 03:39 | 20.21954 | 86.97878 | 38796 ft | 470 kts | 32° |
| 2026-04-27 03:40 | 20.26996 | 87.02301 | 38793 ft | 469 kts | 32° |
| 2026-04-27 03:40 | 20.32038 | 87.06726 | 38790 ft | 469 kts | 32° |
| 2026-04-27 03:41 | 20.37076 | 87.11150 | 38788 ft | 469 kts | 32° |
| 2026-04-27 03:41 | 20.42114 | 87.15577 | 38786 ft | 470 kts | 32° |
| 2026-04-27 03:42 | 20.47155 | 87.20012 | 38778 ft | 470 kts | 32° |
| 2026-04-27 03:42 | 20.52198 | 87.24444 | 38777 ft | 470 kts | 31° |
| 2026-04-27 03:43 | 20.57244 | 87.28878 | 38778 ft | 470 kts | 31° |
| 2026-04-27 03:43 | 20.62290 | 87.33316 | 38769 ft | 470 kts | 31° |
| 2026-04-27 03:44 | 20.67335 | 87.37758 | 38770 ft | 470 kts | 31° |
| 2026-04-27 03:44 | 20.72383 | 87.42206 | 38772 ft | 470 kts | 31° |
| 2026-04-27 03:45 | 20.77426 | 87.46655 | 38766 ft | 470 kts | 31° |
| 2026-04-27 03:45 | 20.82470 | 87.51108 | 38765 ft | 470 kts | 31° |
| 2026-04-27 03:46 | 20.87526 | 87.55562 | 38764 ft | 471 kts | 31° |
| 2026-04-27 03:46 | 20.92578 | 87.60013 | 38764 ft | 471 kts | 31° |
| 2026-04-27 03:47 | 20.97634 | 87.64472 | 38758 ft | 471 kts | 31° |
| 2026-04-27 03:47 | 21.02692 | 87.68939 | 38759 ft | 471 kts | 31° |
| 2026-04-27 03:48 | 21.07752 | 87.73411 | 38763 ft | 471 kts | 31° |
| 2026-04-27 03:48 | 21.12775 | 87.77855 | 38764 ft | 472 kts | 31° |
| 2026-04-27 03:49 | 21.17833 | 87.82333 | 38760 ft | 472 kts | 32° |
| 2026-04-27 03:49 | 21.22895 | 87.86820 | 38760 ft | 472 kts | 31° |
| 2026-04-27 03:50 | 21.27956 | 87.91310 | 38763 ft | 472 kts | 32° |
| 2026-04-27 03:50 | 21.33017 | 87.95804 | 38764 ft | 473 kts | 32° |
| 2026-04-27 03:51 | 21.38186 | 88.00094 | 38763 ft | 463 kts | 22° |
| 2026-04-27 03:51 | 21.43748 | 88.03515 | 38763 ft | 460 kts | 20° |
| 2026-04-27 03:52 | 21.49384 | 88.06754 | 38765 ft | 459 kts | 19° |
| 2026-04-27 03:52 | 21.55037 | 88.09963 | 38766 ft | 459 kts | 19° |
| 2026-04-27 03:53 | 21.60682 | 88.13185 | 38769 ft | 460 kts | 19° |
| 2026-04-27 03:53 | 21.66326 | 88.16423 | 38765 ft | 460 kts | 19° |
| 2026-04-27 03:54 | 21.71964 | 88.19667 | 38770 ft | 460 kts | 19° |
| 2026-04-27 03:54 | 21.77605 | 88.22915 | 38771 ft | 460 kts | 19° |
| 2026-04-27 03:55 | 21.83244 | 88.26164 | 38767 ft | 460 kts | 20° |
| 2026-04-27 03:55 | 21.88883 | 88.29415 | 38765 ft | 460 kts | 20° |
| 2026-04-27 03:56 | 21.93567 | 88.32119 | 38766 ft | 460 kts | 20° |
| 2026-04-27 03:56 | 22.00119 | 88.35903 | 38765 ft | 460 kts | 20° |
| 2026-04-27 03:57 | 22.05749 | 88.39158 | 38762 ft | 459 kts | 20° |
| 2026-04-27 03:57 | 22.10468 | 88.41889 | 38760 ft | 459 kts | 20° |
| 2026-04-27 03:58 | 22.16098 | 88.45150 | 38757 ft | 459 kts | 20° |
| 2026-04-27 03:58 | 22.21722 | 88.48410 | 38753 ft | 459 kts | 20° |
| 2026-04-27 03:59 | 22.27308 | 88.51651 | 38747 ft | 459 kts | 20° |
| 2026-04-27 03:59 | 22.32932 | 88.54917 | 38745 ft | 459 kts | 20° |
| 2026-04-27 04:00 | 22.38554 | 88.58184 | 38746 ft | 459 kts | 20° |
| 2026-04-27 04:00 | 22.44177 | 88.61456 | 38748 ft | 459 kts | 20° |
| 2026-04-27 04:01 | 22.49795 | 88.64728 | 38744 ft | 458 kts | 21° |
| 2026-04-27 04:01 | 22.55406 | 88.67999 | 38742 ft | 458 kts | 21° |
| 2026-04-27 04:02 | 22.61012 | 88.71270 | 38742 ft | 457 kts | 21° |
| 2026-04-27 04:02 | 22.66603 | 88.74536 | 38742 ft | 456 kts | 21° |
| 2026-04-27 04:03 | 22.72181 | 88.77797 | 38746 ft | 455 kts | 21° |
| 2026-04-27 04:03 | 22.77750 | 88.81055 | 38747 ft | 455 kts | 21° |
| 2026-04-27 04:04 | 22.83309 | 88.84310 | 38753 ft | 454 kts | 21° |
| 2026-04-27 04:04 | 22.88873 | 88.87571 | 38753 ft | 455 kts | 21° |
| 2026-04-27 04:04 | 22.91571 | 88.89386 | 38744 ft | 463 kts | 33° |
| 2026-04-27 04:05 | 22.93833 | 88.91916 | 38757 ft | 471 kts | 47° |
| 2026-04-27 04:05 | 22.97690 | 88.97695 | 38756 ft | 475 kts | 51° |
| 2026-04-27 04:06 | 23.01283 | 89.03722 | 38760 ft | 475 kts | 53° |
| 2026-04-27 04:06 | 23.04838 | 89.09755 | 38761 ft | 474 kts | 52° |
| 2026-04-27 04:07 | 23.10211 | 89.18734 | 38752 ft | 472 kts | 52° |
| 2026-04-27 04:07 | 23.12008 | 89.21715 | 38251 ft | 472 kts | 52° |
| 2026-04-27 04:07 | 23.13816 | 89.24708 | 37297 ft | 475 kts | 52° |
| 2026-04-27 04:08 | 23.15627 | 89.27711 | 36254 ft | 477 kts | 52° |
| 2026-04-27 04:08 | 23.17450 | 89.30740 | 35234 ft | 479 kts | 53° |
| 2026-04-27 04:08 | 23.19278 | 89.33779 | 34233 ft | 481 kts | 53° |
| 2026-04-27 04:08 | 23.21110 | 89.36828 | 33129 ft | 483 kts | 53° |
| 2026-04-27 04:09 | 23.22949 | 89.39890 | 31933 ft | 485 kts | 53° |
| 2026-04-27 04:09 | 23.24796 | 89.42967 | 30731 ft | 487 kts | 53° |
| 2026-04-27 04:09 | 23.26625 | 89.46015 | 29471 ft | 489 kts | 53° |
| 2026-04-27 04:09 | 23.28490 | 89.49125 | 27983 ft | 492 kts | 53° |
| 2026-04-27 04:10 | 23.30368 | 89.52259 | 26452 ft | 496 kts | 53° |
| 2026-04-27 04:10 | 23.32245 | 89.55395 | 24702 ft | 495 kts | 53° |
| 2026-04-27 04:10 | 23.34139 | 89.58555 | 22423 ft | 502 kts | 53° |
| 2026-04-27 04:10 | 23.36056 | 89.61754 | 20833 ft | 496 kts | 53° |
| 2026-04-27 04:11 | 23.37886 | 89.64822 | 19364 ft | 478 kts | 53° |
| 2026-04-27 04:11 | 23.39669 | 89.67871 | 17646 ft | 474 kts | 54° |
| 2026-04-27 04:11 | 23.41376 | 89.70883 | 16034 ft | 461 kts | 54° |
| 2026-04-27 04:11 | 23.43029 | 89.73824 | 14527 ft | 450 kts | 54° |
| 2026-04-27 04:12 | 23.44635 | 89.76700 | 13060 ft | 439 kts | 54° |
| 2026-04-27 04:12 | 23.46201 | 89.79514 | 11430 ft | 430 kts | 55° |
| 2026-04-27 04:12 | 23.47748 | 89.82292 | 9810 ft | 428 kts | 56° |
| 2026-04-27 04:12 | 23.49265 | 89.85058 | 8436 ft | 421 kts | 57° |
| 2026-04-27 04:13 | 23.50745 | 89.87776 | 7129 ft | 414 kts | 58° |
| 2026-04-27 04:13 | 23.52203 | 89.90443 | 5941 ft | 405 kts | 58° |
| 2026-04-27 04:13 | 23.53616 | 89.93011 | 5298 ft | 381 kts | 59° |
| 2026-04-27 04:13 | 23.54933 | 89.95387 | 4903 ft | 353 kts | 59° |
| 2026-04-27 04:14 | 23.56163 | 89.97594 | 4567 ft | 328 kts | 59° |
| 2026-04-27 04:14 | 23.57314 | 89.99647 | 4249 ft | 307 kts | 58° |
| 2026-04-27 04:14 | 23.58388 | 90.01565 | 4011 ft | 287 kts | 59° |
| 2026-04-27 04:14 | 23.59393 | 90.03365 | 3792 ft | 270 kts | 59° |
| 2026-04-27 04:15 | 23.60196 | 90.05136 | 3558 ft | 253 kts | 75° |
| 2026-04-27 04:15 | 23.60353 | 90.06951 | 3364 ft | 233 kts | 103° |
| 2026-04-27 04:15 | 23.59681 | 90.08453 | 3065 ft | 217 kts | 140° |
| 2026-04-27 04:15 | 23.58400 | 90.09173 | 2799 ft | 205 kts | 174° |
| 2026-04-27 04:16 | 23.57046 | 90.09004 | 2525 ft | 198 kts | 204° |
| 2026-04-27 04:16 | 23.55967 | 90.08095 | 2232 ft | 198 kts | 228° |
| 2026-04-27 04:16 | 23.55154 | 90.06885 | 1991 ft | 198 kts | 236° |
| 2026-04-27 04:16 | 23.54469 | 90.05581 | 1947 ft | 199 kts | 240° |
| 2026-04-27 04:17 | 23.53826 | 90.04243 | 1952 ft | 199 kts | 239° |
| 2026-04-27 04:17 | 23.53178 | 90.02923 | 1947 ft | 199 kts | 239° |
| 2026-04-27 04:17 | 23.52501 | 90.01584 | 1943 ft | 205 kts | 237° |
| 2026-04-27 04:17 | 23.51731 | 90.00255 | 1952 ft | 211 kts | 233° |
| 2026-04-27 04:18 | 23.50821 | 89.98988 | 1925 ft | 212 kts | 227° |
| 2026-04-27 04:18 | 23.49833 | 89.97779 | 1945 ft | 216 kts | 226° |
| 2026-04-27 04:18 | 23.48999 | 89.96432 | 1900 ft | 214 kts | 249° |
| 2026-04-27 04:18 | 23.48948 | 89.94860 | 1908 ft | 209 kts | 286° |
| 2026-04-27 04:19 | 23.49790 | 89.93579 | 1928 ft | 215 kts | 320° |
| 2026-04-27 04:19 | 23.51173 | 89.92915 | 1934 ft | 223 kts | 349° |
| 2026-04-27 04:19 | 23.52711 | 89.93050 | 1931 ft | 225 kts | 21° |
| 2026-04-27 04:19 | 23.53979 | 89.94010 | 1933 ft | 223 kts | 46° |
| 2026-04-27 04:20 | 23.54986 | 89.95296 | 1937 ft | 224 kts | 57° |
| 2026-04-27 04:20 | 23.55834 | 89.96710 | 1936 ft | 222 kts | 62° |
| 2026-04-27 04:20 | 23.56602 | 89.98164 | 1935 ft | 222 kts | 63° |
| 2026-04-27 04:20 | 23.57357 | 89.99640 | 1932 ft | 223 kts | 63° |
| 2026-04-27 04:21 | 23.58121 | 90.01110 | 1941 ft | 223 kts | 61° |
| 2026-04-27 04:21 | 23.58905 | 90.02570 | 1935 ft | 223 kts | 61° |
| 2026-04-27 04:21 | 23.59707 | 90.04019 | 1934 ft | 224 kts | 59° |
| 2026-04-27 04:21 | 23.60624 | 90.05384 | 1933 ft | 224 kts | 44° |
| 2026-04-27 04:22 | 23.61850 | 90.06433 | 1939 ft | 224 kts | 34° |
| 2026-04-27 04:22 | 23.63158 | 90.07363 | 1941 ft | 225 kts | 32° |
| 2026-04-27 04:22 | 23.64481 | 90.08271 | 1945 ft | 225 kts | 33° |
| 2026-04-27 04:22 | 23.65801 | 90.09181 | 1941 ft | 225 kts | 33° |
| 2026-04-27 04:23 | 23.67130 | 90.10103 | 1954 ft | 227 kts | 33° |
| 2026-04-27 04:23 | 23.68469 | 90.11035 | 1961 ft | 229 kts | 33° |
| 2026-04-27 04:23 | 23.69798 | 90.11964 | 1961 ft | 222 kts | 33° |
| 2026-04-27 04:23 | 23.71043 | 90.12834 | 1962 ft | 206 kts | 33° |
| 2026-04-27 04:24 | 23.72250 | 90.13679 | 1960 ft | 205 kts | 33° |
| 2026-04-27 04:24 | 23.73449 | 90.14520 | 1962 ft | 205 kts | 33° |
| 2026-04-27 04:24 | 23.74640 | 90.15354 | 1956 ft | 198 kts | 33° |
| 2026-04-27 04:24 | 23.75741 | 90.16125 | 1957 ft | 176 kts | 33° |
| 2026-04-27 04:25 | 23.76693 | 90.16792 | 1966 ft | 153 kts | 34° |
| 2026-04-27 04:25 | 23.77625 | 90.17448 | 2008 ft | 170 kts | 34° |
| 2026-04-27 04:25 | 23.78651 | 90.18170 | 1981 ft | 180 kts | 34° |
| 2026-04-27 04:25 | 23.79721 | 90.18921 | 1976 ft | 185 kts | 34° |
| 2026-04-27 04:26 | 23.80805 | 90.19680 | 1983 ft | 185 kts | 34° |
| 2026-04-27 04:26 | 23.81884 | 90.20435 | 1985 ft | 184 kts | 34° |
| 2026-04-27 04:26 | 23.82959 | 90.21186 | 1983 ft | 183 kts | 34° |
| 2026-04-27 04:26 | 23.84029 | 90.21936 | 1980 ft | 182 kts | 34° |
| 2026-04-27 04:27 | 23.85079 | 90.22672 | 1964 ft | 172 kts | 34° |
| 2026-04-27 04:27 | 23.86019 | 90.23330 | 1949 ft | 151 kts | 34° |
| 2026-04-27 04:27 | 23.86874 | 90.23932 | 1971 ft | 144 kts | 35° |
| 2026-04-27 04:27 | 23.87716 | 90.24525 | 1981 ft | 144 kts | 35° |
| 2026-04-27 04:28 | 23.88555 | 90.25117 | 1983 ft | 143 kts | 34° |
| 2026-04-27 04:28 | 23.89395 | 90.25709 | 1981 ft | 144 kts | 35° |
| 2026-04-27 04:28 | 23.90241 | 90.26305 | 1988 ft | 145 kts | 35° |
| 2026-04-27 04:28 | 23.91089 | 90.26903 | 1989 ft | 145 kts | 34° |
| 2026-04-27 04:29 | 23.91931 | 90.27496 | 1984 ft | 143 kts | 34° |
| 2026-04-27 04:29 | 23.92763 | 90.28080 | 1988 ft | 142 kts | 35° |
| 2026-04-27 04:29 | 23.93585 | 90.28672 | 1982 ft | 142 kts | 40° |
| 2026-04-27 04:29 | 23.94246 | 90.29452 | 1984 ft | 139 kts | 64° |
| 2026-04-27 04:30 | 23.94520 | 90.30433 | 1996 ft | 133 kts | 91° |
| 2026-04-27 04:30 | 23.94314 | 90.31384 | 2015 ft | 130 kts | 123° |
| 2026-04-27 04:30 | 23.93770 | 90.32169 | 2009 ft | 133 kts | 138° |
| 2026-04-27 04:30 | 23.93058 | 90.32815 | 1861 ft | 134 kts | 144° |
| 2026-04-27 04:31 | 23.92298 | 90.33431 | 1678 ft | 134 kts | 145° |
| 2026-04-27 04:31 | 23.91560 | 90.34019 | 1501 ft | 133 kts | 144° |
| 2026-04-27 04:31 | 23.90814 | 90.34617 | 1327 ft | 133 kts | 145° |
| 2026-04-27 04:31 | 23.90070 | 90.35213 | 1157 ft | 132 kts | 145° |
| 2026-04-27 04:32 | 23.89327 | 90.35805 | 990 ft | 132 kts | 146° |
| 2026-04-27 04:32 | 23.88581 | 90.36399 | 818 ft | 133 kts | 142° |
| 2026-04-27 04:32 | 23.87837 | 90.36993 | 645 ft | 132 kts | 141° |
| 2026-04-27 04:32 | 23.87097 | 90.37584 | 461 ft | 131 kts | 140° |
| 2026-04-27 04:33 | 23.86366 | 90.38166 | 294 ft | 129 kts | 139° |
| 2026-04-27 04:33 | 23.85639 | 90.38745 | 138 ft | 130 kts | 134° |
| 2026-04-27 04:33 | 23.84929 | 90.39322 | 37 ft | 114 kts | 142° |
| 2026-04-27 04:33 | 23.84427 | 90.39706 | 38 ft | 63 kts | 144° |
| 2026-04-27 04:34 | 23.84282 | 90.39818 | 39 ft | 10 kts | 143° |
| 2026-04-27 04:34 | 23.84217 | 90.39874 | 38 ft | 16 kts | 140° |
| 2026-04-27 04:34 | 23.84134 | 90.39965 | 37 ft | 18 kts | 132° |
| 2026-04-27 04:34 | 23.84059 | 90.40068 | 40 ft | 15 kts | 118° |
| 2026-04-27 04:35 | 23.84027 | 90.40146 | 39 ft | 0 kts | 110° |
| 2026-04-27 04:35 | 23.84021 | 90.40163 | 39 ft | 4 kts | 109° |
| 2026-04-27 04:35 | 23.84009 | 90.40209 | 39 ft | 10 kts | 105° |
| 2026-04-27 04:36 | 23.83997 | 90.40294 | 39 ft | 12 kts | 89° |
| 2026-04-27 04:36 | 23.84012 | 90.40383 | 39 ft | 11 kts | 67° |
| 2026-04-27 04:36 | 23.84047 | 90.40454 | 39 ft | 10 kts | 53° |
| 2026-04-27 04:36 | 23.84088 | 90.40513 | 39 ft | 10 kts | 53° |
| 2026-04-27 04:37 | 23.84127 | 90.40572 | 39 ft | 9 kts | 55° |
| 2026-04-27 04:37 | 23.84170 | 90.40651 | 39 ft | 13 kts | 71° |
| 2026-04-27 04:37 | 23.84162 | 90.40725 | 39 ft | 8 kts | 119° |
| 2026-04-27 04:37 | 23.84150 | 90.40764 | 39 ft | 4 kts | 85° |
| 2026-04-27 04:38 | 23.84163 | 90.40784 | 37 ft | 0 kts | 47° |